Time;durP1;ratioP1;P1;durP2;ratioP2;P2;SDS_P1;SDS_P2;PMS_P1;PMS_P2;Temp;Humidity;BMP_temperature;BMP_pressure;BME280_temperature;BME280_humidity;BME280_pressure;Samples;Min_cycle;Max_cycle;Signal;HPM_P1;HPM_P2
2023/05/14 00:04:07;;;;;;;6.70;5.60;;;11.40;99.90;;;9.73;100.00;100565.03;10388537;28;98510;-90
2023/05/14 00:09:11;;;;;;;6.17;4.87;;;11.50;99.90;;;9.74;100.00;100564.88;10405409;27;96648;-90
2023/05/14 00:14:15;;;;;;;7.67;6.17;;;11.40;99.90;;;9.76;100.00;100562.06;10400840;27;96708;-90
2023/05/14 00:19:18;;;;;;;8.00;5.40;;;11.40;99.90;;;9.80;100.00;100558.94;10401567;28;96823;-90
2023/05/14 00:24:21;;;;;;;6.30;5.07;;;11.50;99.90;;;9.79;100.00;100549.31;10399742;27;96707;-90
2023/05/14 00:29:24;;;;;;;7.27;5.10;;;11.50;99.90;;;9.82;100.00;100546.34;10401745;28;97252;-90
2023/05/14 00:34:27;;;;;;;6.40;4.87;;;11.50;99.90;;;9.82;100.00;100546.34;10386352;28;97401;-90
2023/05/14 00:39:29;;;;;;;7.00;5.60;;;11.50;99.90;;;9.85;100.00;100548.72;10396310;28;97363;-90
2023/05/14 00:44:32;;;;;;;5.03;3.70;;;11.50;99.90;;;9.87;100.00;100544.06;10384189;28;96547;-90
2023/05/14 00:49:38;;;;;;;6.00;4.50;;;11.60;99.90;;;9.89;100.00;100546.56;10416080;27;96936;-90
2023/05/14 00:54:41;;;;;;;6.60;4.70;;;11.60;99.90;;;9.95;100.00;100547.75;10422105;27;96490;-90
2023/05/14 00:59:44;;;;;;;5.70;4.57;;;11.60;99.90;;;9.95;100.00;100542.44;10402792;28;96788;-90
2023/05/14 01:04:48;;;;;;;8.20;5.90;;;11.60;99.90;;;10.00;100.00;100541.00;10387714;28;98751;-90
2023/05/14 01:10:09;;;;;;;8.13;6.07;;;11.60;99.90;;;10.05;100.00;100535.22;10410814;27;98210;-90
2023/05/14 01:15:29;;;;;;;8.32;6.45;;;11.70;99.90;;;10.07;100.00;100514.66;10419866;28;97021;-90
2023/05/14 01:20:32;;;;;;;6.77;5.50;;;11.80;99.90;;;10.10;100.00;100501.91;10400894;28;96477;-90
2023/05/14 01:25:36;;;;;;;7.73;3.93;;;11.80;99.90;;;10.17;100.00;100502.09;10408835;28;96529;-90
2023/05/14 01:30:47;;;;;;;5.87;5.00;;;11.80;99.90;;;10.23;100.00;100503.31;10387572;28;96619;-90
2023/05/14 01:35:52;;;;;;;10.05;5.32;;;11.90;99.90;;;10.24;100.00;100489.88;10433671;27;96610;-90
2023/05/14 01:40:56;;;;;;;5.60;4.13;;;11.90;99.90;;;10.23;100.00;100488.22;10403893;28;96751;-90
2023/05/14 01:45:59;;;;;;;6.30;4.83;;;12.00;99.90;;;10.28;100.00;100485.09;10402686;28;96676;-90
2023/05/14 01:51:03;;;;;;;6.50;4.13;;;12.00;99.90;;;10.29;100.00;100470.81;10389396;28;97343;-90
2023/05/14 01:56:06;;;;;;;6.13;4.70;;;12.00;99.90;;;10.31;100.00;100459.03;10422926;27;96561;-90
2023/05/14 02:01:09;;;;;;;5.10;3.73;;;12.00;99.90;;;10.32;100.00;100466.03;10383755;28;98875;-91
2023/05/14 02:06:13;;;;;;;5.27;4.00;;;12.10;99.90;;;10.37;100.00;100453.09;10421099;27;97617;-90
2023/05/14 02:11:16;;;;;;;4.87;4.00;;;12.10;99.90;;;10.39;100.00;100451.13;10406396;28;96544;-90
2023/05/14 02:16:19;;;;;;;7.40;5.80;;;12.10;99.90;;;10.41;100.00;100448.28;10381375;28;96635;-90
2023/05/14 02:21:23;;;;;;;5.10;4.20;;;12.20;99.90;;;10.41;100.00;100438.50;10422936;28;96554;-90
2023/05/14 02:26:26;;;;;;;10.87;4.97;;;12.20;99.90;;;10.41;99.80;100427.88;10413806;28;96629;-90
2023/05/14 02:31:29;;;;;;;4.30;3.10;;;12.20;99.90;;;10.45;99.60;100434.53;10398475;28;98462;-90
2023/05/14 02:36:32;;;;;;;4.10;2.90;;;12.20;99.90;;;10.47;99.86;100430.88;10417816;28;96653;-90
2023/05/14 02:41:35;;;;;;;6.73;3.00;;;12.20;99.90;;;10.48;100.00;100432.53;10412285;28;96629;-90
2023/05/14 02:46:39;;;;;;;6.63;4.27;;;12.20;99.90;;;10.44;100.00;100421.41;10403629;28;96633;-90
2023/05/14 02:51:42;;;;;;;5.80;3.87;;;12.20;99.90;;;10.40;100.00;100420.91;10406566;28;96431;-90
2023/05/14 02:56:45;;;;;;;5.47;3.70;;;12.20;99.90;;;10.39;100.00;100429.03;10412942;27;97009;-90
2023/05/14 03:01:48;;;;;;;7.77;4.10;;;12.10;99.90;;;10.42;99.85;100426.88;10400862;27;98003;-90
2023/05/14 03:06:51;;;;;;;5.83;3.20;;;12.10;99.90;;;10.45;99.65;100429.22;10385744;28;96549;-89
2023/05/14 03:11:55;;;;;;;6.77;3.50;;;12.20;99.90;;;10.43;98.75;100419.72;10379846;28;96571;-89
2023/05/14 03:16:58;;;;;;;5.73;3.53;;;12.20;99.90;;;10.49;99.06;100418.25;10399631;27;97448;-90
2023/05/14 03:22:02;;;;;;;4.80;4.03;;;12.20;99.90;;;10.46;97.98;100411.44;10401768;28;98436;-90
2023/05/14 03:27:05;;;;;;;6.10;3.50;;;12.30;99.90;;;10.47;96.42;100412.28;10420402;27;96512;-90
2023/05/14 03:32:08;;;;;;;4.43;3.10;;;12.20;99.90;;;10.47;95.55;100409.63;10392831;28;96706;-90
2023/05/14 03:37:11;;;;;;;4.00;3.07;;;12.20;99.90;;;10.49;96.04;100408.47;10419612;28;96674;-90
2023/05/14 03:42:14;;;;;;;5.37;3.50;;;12.30;99.90;;;10.51;95.18;100401.19;10392220;28;96644;-90
2023/05/14 03:47:17;;;;;;;7.17;2.80;;;12.30;99.90;;;10.51;93.35;100406.50;10398839;28;97798;-92
2023/05/14 03:52:20;;;;;;;3.37;3.07;;;12.30;99.90;;;10.56;92.78;100417.47;10388820;28;96483;-91
2023/05/14 03:57:23;;;;;;;5.10;3.43;;;12.30;99.90;;;10.58;92.08;100433.25;10362743;28;96471;-91
2023/05/14 04:02:26;;;;;;;6.10;3.57;;;12.40;99.90;;;10.61;92.08;100423.09;10386598;27;97640;-90
2023/05/14 04:07:30;;;;;;;7.40;3.07;;;12.40;99.90;;;10.65;92.28;100413.00;10402551;28;96602;-90
2023/05/14 04:12:33;;;;;;;4.30;3.37;;;12.40;99.90;;;10.66;90.89;100410.16;10397085;28;96933;-90
2023/05/14 04:17:36;;;;;;;4.20;3.10;;;12.40;99.90;;;10.65;91.53;100419.13;10401381;28;96680;-90
2023/05/14 04:22:39;;;;;;;4.90;2.97;;;12.40;99.90;;;10.66;90.15;100410.16;10398245;28;96992;-90
2023/05/14 04:27:42;;;;;;;8.60;3.47;;;12.40;99.90;;;10.69;89.84;100415.16;10387322;27;96554;-90
2023/05/14 04:32:45;;;;;;;5.37;3.93;;;12.50;99.90;;;10.70;89.53;100400.03;10423968;28;96586;-90
2023/05/14 04:37:48;;;;;;;5.17;3.57;;;12.50;99.90;;;10.74;89.89;100389.94;10425984;28;97710;-90
2023/05/14 04:42:51;;;;;;;5.17;3.20;;;12.50;99.90;;;10.73;89.96;100394.38;10405222;28;98229;-90
2023/05/14 04:47:54;;;;;;;5.03;2.90;;;12.50;99.90;;;10.81;92.38;100397.06;10398138;27;97257;-91
2023/05/14 04:52:57;;;;;;;4.73;3.43;;;12.60;99.90;;;10.86;93.13;100399.25;10408020;28;96614;-90
2023/05/14 04:58:00;;;;;;;3.97;2.90;;;12.60;99.90;;;10.89;94.03;100383.78;10422929;28;96719;-89
2023/05/14 05:03:03;;;;;;;6.20;4.03;;;12.70;99.90;;;10.88;92.63;100389.28;10405099;28;96432;-90
2023/05/14 05:08:07;;;;;;;7.00;5.00;;;12.60;99.90;;;10.90;92.20;100389.94;10407397;28;96659;-90
2023/05/14 05:13:10;;;;;;;5.57;4.23;;;12.70;99.90;;;10.88;91.75;100376.81;10422810;27;96773;-90
2023/05/14 05:18:13;;;;;;;5.27;3.47;;;12.70;99.90;;;10.86;89.66;100378.81;10419452;28;97473;-91
2023/05/14 05:23:16;;;;;;;9.43;3.30;;;12.70;99.90;;;10.83;90.15;100368.50;10411162;27;98488;-91
2023/05/14 05:28:19;;;;;;;4.10;3.03;;;12.70;99.90;;;10.86;90.32;100373.50;10405331;28;98445;-91
2023/05/14 05:33:22;;;;;;;4.63;3.30;;;12.70;99.90;;;10.84;89.70;100367.50;10403211;27;97402;-94
2023/05/14 05:38:25;;;;;;;7.30;3.67;;;12.70;99.90;;;10.79;88.49;100371.63;10409113;27;96484;-95
2023/05/14 05:43:28;;;;;;;4.60;3.30;;;12.60;99.90;;;10.86;89.27;100378.81;10426521;28;96702;-90
2023/05/14 05:48:31;;;;;;;3.90;3.23;;;12.60;99.90;;;10.83;88.07;100367.66;10405472;28;96987;-91
2023/05/14 05:53:34;;;;;;;9.33;3.33;;;12.70;99.90;;;10.79;87.41;100377.78;10418022;28;96469;-90
2023/05/14 05:58:37;;;;;;;10.60;3.73;;;12.60;99.90;;;10.77;86.41;100382.44;10428166;27;96677;-90
2023/05/14 06:03:41;;;;;;;5.30;3.63;;;12.60;99.90;;;10.72;86.65;100382.94;10403936;28;96714;-91
2023/05/14 06:08:44;;;;;;;4.70;3.40;;;12.50;99.90;;;10.74;87.56;100384.63;10421006;28;96689;-91
2023/05/14 06:13:47;;;;;;;5.40;3.47;;;12.50;99.90;;;10.73;88.36;100383.75;10404800;28;96603;-91
2023/05/14 06:18:51;;;;;;;4.57;3.73;;;12.50;99.90;;;10.74;88.56;100384.63;10398640;28;97143;-90
2023/05/14 06:23:54;;;;;;;5.77;3.33;;;12.50;99.90;;;10.77;88.07;100390.41;10417535;27;97562;-92
2023/05/14 06:28:58;;;;;;;5.03;3.50;;;12.50;99.90;;;10.77;88.36;100381.63;10418631;27;96704;-91
2023/05/14 06:34:00;;;;;;;3.93;3.47;;;12.60;99.90;;;10.79;89.52;100383.09;10416340;27;96651;-91
2023/05/14 06:39:04;;;;;;;6.03;3.67;;;12.60;99.90;;;10.86;89.64;100383.28;10411502;27;96834;-91
2023/05/14 06:44:07;;;;;;;4.70;3.87;;;12.60;99.90;;;10.84;90.37;100372.81;10390364;28;96916;-91
2023/05/14 06:49:10;;;;;;;7.47;4.17;;;12.70;99.90;;;10.84;88.88;100372.81;10383963;27;96940;-91
2023/05/14 06:54:13;;;;;;;5.47;4.17;;;12.70;99.90;;;10.91;89.88;100376.47;10401335;28;98011;-91
2023/05/14 06:59:16;;;;;;;4.23;3.77;;;12.70;99.90;;;10.95;90.89;100364.50;10402591;28;96667;-91
2023/05/14 07:04:19;;;;;;;5.57;3.63;;;12.70;99.90;;;10.97;90.53;100353.69;10396909;28;97967;-90
2023/05/14 07:09:22;;;;;;;5.03;3.90;;;12.80;99.90;;;11.04;90.49;100348.56;10419687;28;97237;-92
2023/05/14 07:14:25;;;;;;;5.20;3.53;;;12.80;99.90;;;11.14;91.17;100352.69;10401261;28;96829;-92
2023/05/14 07:19:28;;;;;;;6.03;4.07;;;12.90;99.90;;;11.26;91.59;100347.84;10399829;28;96555;-91
2023/05/14 07:24:31;;;;;;;6.50;3.70;;;13.00;99.90;;;11.35;91.63;100338.88;10417634;27;96614;-91
2023/05/14 07:29:34;;;;;;;4.03;3.43;;;13.10;99.90;;;11.43;90.15;100333.53;10389142;28;96585;-90
2023/05/14 07:34:37;;;;;;;5.60;3.87;;;13.20;99.90;;;11.48;90.17;100320.53;10399723;28;96700;-90
2023/05/14 07:39:41;;;;;;;6.07;3.83;;;13.20;99.90;;;11.56;89.59;100321.53;10404027;28;96485;-89
2023/05/14 07:44:43;;;;;;;5.73;4.27;;;13.30;99.90;;;11.66;90.17;100316.84;10415594;28;98271;-89
2023/05/14 07:49:46;;;;;;;5.50;3.90;;;13.40;99.90;;;11.89;92.75;100320.44;10415912;27;96837;-89
2023/05/14 07:54:50;;;;;;;8.30;4.17;;;13.60;99.90;;;12.01;90.79;100316.38;10398245;28;96726;-89
2023/05/14 07:59:55;;;;;;;6.32;4.20;;;13.80;99.90;;;12.08;89.15;100305.84;10396955;28;96593;-89
2023/05/14 08:04:58;;;;;;;9.53;5.30;;;13.90;99.90;;;12.14;87.24;100304.34;10403064;28;97610;-90
2023/05/14 08:10:02;;;;;;;8.63;4.20;;;13.90;99.90;;;12.16;86.74;100294.31;10405222;28;99102;-90
2023/05/14 08:15:06;;;;;;;4.97;3.97;;;14.00;99.90;;;12.26;87.85;100292.25;10401361;28;96571;-90
2023/05/14 08:20:10;;;;;;;6.13;3.90;;;14.00;99.90;;;12.38;89.37;100280.19;10390137;28;96628;-89
2023/05/14 08:25:13;;;;;;;5.47;4.20;;;14.10;99.90;;;12.45;88.27;100275.81;10421533;28;98189;-89
2023/05/14 08:30:17;;;;;;;8.00;4.10;;;14.20;99.90;;;12.51;86.76;100275.09;10405376;28;96855;-90
2023/05/14 08:35:20;;;;;;;6.93;4.70;;;14.30;99.90;;;12.44;86.99;100257.34;10388339;28;96981;-90
2023/05/14 08:40:23;;;;;;;5.10;3.83;;;14.20;99.90;;;12.45;86.75;100257.16;10407981;28;96706;-90
2023/05/14 08:45:32;;;;;;;5.60;3.73;;;14.20;99.90;;;12.50;87.66;100264.63;10423769;28;97020;-90
2023/05/14 08:50:36;;;;;;;9.32;4.65;;;14.20;99.90;;;12.53;87.21;100235.78;10421050;28;96517;-90
2023/05/14 08:55:39;;;;;;;6.97;4.33;;;14.30;99.90;;;12.62;87.86;100239.19;10421821;28;96839;-90
2023/05/14 09:00:42;;;;;;;5.37;3.83;;;14.40;99.90;;;12.65;87.81;100232.66;10422842;28;96991;-91
2023/05/14 09:05:45;;;;;;;4.55;3.90;;;14.40;99.90;;;12.68;88.65;100229.66;10403410;28;97458;-92
2023/05/14 09:10:48;;;;;;;8.93;3.80;;;14.40;99.90;;;12.63;86.13;100230.19;10403959;28;96768;-91
2023/05/14 09:15:51;;;;;;;4.50;3.97;;;14.40;99.90;;;12.64;86.67;100226.50;10388459;28;97282;-92
2023/05/14 09:20:55;;;;;;;6.57;4.60;;;14.40;99.90;;;12.59;86.47;100240.41;10416739;28;96646;-91
2023/05/14 09:26:02;;;;;;;12.73;8.70;;;14.30;99.90;;;12.56;86.51;100224.75;10405629;28;98102;-91
2023/05/14 09:31:05;;;;;;;7.93;4.50;;;14.30;99.90;;;12.54;85.97;100216.09;10406431;28;96512;-90
2023/05/14 09:36:08;;;;;;;5.83;4.53;;;14.30;99.90;;;12.48;85.83;100205.34;10403392;28;96662;-91
2023/05/14 09:41:12;;;;;;;6.97;4.70;;;14.30;99.90;;;12.49;86.69;100193.66;10407745;27;96590;-90
2023/05/14 09:46:15;;;;;;;9.40;5.50;;;14.20;99.90;;;12.54;87.65;100194.78;10419583;28;96639;-89
2023/05/14 09:51:20;;;;;;;9.17;4.67;;;14.30;99.90;;;12.55;88.43;100200.94;10427283;28;96500;-89
2023/05/14 09:56:23;;;;;;;7.93;6.03;;;14.30;99.90;;;12.56;89.66;100192.75;10415510;28;96522;-89
2023/05/14 10:01:28;;;;;;;8.83;5.87;;;14.30;99.90;;;12.56;90.52;100184.75;10402319;28;96549;-90
2023/05/14 10:06:37;;;;;;;8.20;5.33;;;14.30;99.90;;;12.52;91.08;100180.78;10389526;28;97111;-88
2023/05/14 10:11:45;;;;;;;10.35;4.75;;;14.20;99.90;;;12.48;92.29;100166.19;10406598;28;96479;-90
2023/05/14 10:16:55;;;;;;;10.40;6.70;;;14.20;99.90;;;12.48;93.76;100168.84;10419271;28;96915;-89
2023/05/14 10:22:05;;;;;;;11.60;6.57;;;14.20;99.90;;;12.47;94.82;100147.69;10432142;27;96690;-89
2023/05/14 10:27:09;;;;;;;;;;;14.10;99.90;;;12.48;95.72;100141.38;10387587;28;96631;-88
2023/05/14 10:32:15;;;;;;;9.00;5.77;;;14.10;99.90;;;12.45;96.57;100118.56;10419032;28;96660;-88
2023/05/14 10:37:26;;;;;;;6.35;5.47;;;14.10;99.90;;;12.45;97.32;100115.06;10421298;27;97455;-87
2023/05/14 10:42:42;;;;;;;6.63;5.47;;;14.10;99.90;;;12.47;97.69;100113.88;10392995;28;96738;-88
2023/05/14 10:47:46;;;;;;;7.45;6.25;;;14.20;99.90;;;12.51;98.28;100130.34;10412603;28;97491;-86
2023/05/14 10:52:50;;;;;;;8.37;7.13;;;14.20;99.90;;;12.47;98.51;100118.38;10419142;27;96733;-86
2023/05/14 10:57:57;;;;;;;8.83;6.53;;;14.10;99.90;;;12.46;99.12;100112.22;10402963;28;96660;-86
2023/05/14 11:03:06;;;;;;;12.63;8.47;;;14.10;99.90;;;12.44;99.41;100103.59;10413347;28;96562;-86
2023/05/14 11:08:10;;;;;;;14.87;10.33;;;14.10;99.90;;;12.40;98.89;100096.94;10385376;28;97532;-86
2023/05/14 11:13:15;;;;;;;10.13;7.77;;;14.00;99.90;;;12.39;99.42;100108.63;10400440;28;96528;-86
2023/05/14 11:18:30;;;;;;;9.95;7.60;;;14.00;99.90;;;12.34;98.76;100105.69;10384971;28;98393;-86
2023/05/14 11:23:33;;;;;;;12.10;6.97;;;13.90;99.90;;;12.29;99.14;100089.41;10392759;28;97947;-86
2023/05/14 11:28:37;;;;;;;8.33;7.00;;;13.90;99.90;;;12.26;99.33;100079.94;10433592;27;96571;-87
2023/05/14 11:33:40;;;;;;;11.10;8.80;;;13.90;99.90;;;12.26;99.78;100093.28;10415394;28;96745;-86
2023/05/14 11:38:47;;;;;;;11.87;8.77;;;13.80;99.90;;;12.27;100.00;100088.75;10379227;28;97368;-87
2023/05/14 11:43:51;;;;;;;10.73;8.27;;;13.90;99.90;;;12.25;100.00;100091.63;10383804;28;98347;-86
2023/05/14 11:48:53;;;;;;;10.90;7.50;;;13.80;99.90;;;12.25;100.00;100077.47;10378304;28;98181;-87
2023/05/14 11:53:57;;;;;;;22.77;13.37;;;13.80;99.90;;;12.21;100.00;100082.31;10402442;28;96497;-87
2023/05/14 11:59:01;;;;;;;15.57;9.20;;;13.80;99.90;;;12.18;100.00;100074.72;10380623;28;96772;-87
2023/05/14 12:04:04;;;;;;;17.53;9.87;;;13.80;99.90;;;12.13;100.00;100070.94;10378883;28;96590;-87
2023/05/14 12:09:11;;;;;;;14.33;9.33;;;13.70;99.90;;;12.16;100.00;100076.69;10430225;27;96704;-86
2023/05/14 12:14:19;;;;;;;9.33;7.20;;;13.80;99.90;;;12.14;100.00;100069.91;10417893;27;96588;-86
2023/05/14 12:19:24;;;;;;;16.53;11.03;;;13.70;99.90;;;12.11;100.00;100062.28;10378205;28;96649;-87
2023/05/14 12:24:28;;;;;;;13.97;9.33;;;13.70;99.90;;;12.09;100.00;100062.47;10380640;28;97570;-88
2023/05/14 12:29:37;;;;;;;10.20;8.83;;;13.70;99.90;;;12.08;100.00;100038.69;10401592;27;96621;-89
2023/05/14 12:34:40;;;;;;;17.27;9.57;;;13.70;99.90;;;12.05;100.00;100039.84;10397809;28;98245;-89
2023/05/14 12:39:43;;;;;;;11.30;8.67;;;13.60;99.90;;;11.99;100.00;100032.59;10383006;28;96724;-88
2023/05/14 12:44:47;;;;;;;13.50;8.80;;;13.60;99.90;;;11.99;100.00;100044.06;10401822;28;97533;-88
2023/05/14 12:49:50;;;;;;;13.70;9.30;;;13.60;99.90;;;11.97;100.00;100043.44;10403653;28;97064;-90
2023/05/14 12:54:53;;;;;;;12.83;10.30;;;13.60;99.90;;;11.96;100.00;100024.97;10405827;28;96692;-90
2023/05/14 12:59:56;;;;;;;17.63;11.43;;;13.50;99.90;;;11.98;100.00;100010.47;10406480;28;97107;-89
2023/05/14 13:05:01;;;;;;;11.77;8.87;;;13.50;99.90;;;11.95;100.00;100008.16;10401186;28;97425;-91
2023/05/14 13:10:05;;;;;;;10.80;8.73;;;13.50;99.90;;;11.96;100.00;99993.84;10406797;28;97099;-91
2023/05/14 13:15:09;;;;;;;10.63;8.60;;;13.50;99.90;;;11.88;100.00;99993.94;10392822;28;96427;-90
2023/05/14 13:20:12;;;;;;;11.17;7.97;;;13.50;99.90;;;11.86;100.00;99984.47;10424692;28;96628;-91
2023/05/14 13:25:15;;;;;;;10.53;7.30;;;13.40;99.90;;;11.79;100.00;99974.50;10424828;27;96461;-91
2023/05/14 13:30:19;;;;;;;10.57;8.50;;;13.40;99.90;;;11.75;100.00;99967.06;10408189;28;97491;-92
2023/05/14 13:35:22;;;;;;;9.97;7.83;;;13.30;99.90;;;11.64;100.00;99951.53;10407319;28;96661;-93
2023/05/14 13:40:25;;;;;;;7.73;6.40;;;13.20;99.90;;;11.62;100.00;99954.38;10425770;28;97036;-91
2023/05/14 13:45:28;;;;;;;12.70;7.87;;;13.20;99.90;;;11.60;100.00;99935.09;10391878;28;96839;-92
2023/05/14 13:50:31;;;;;;;24.53;14.43;;;13.20;99.90;;;11.60;100.00;99924.44;10423642;28;96557;-92
2023/05/14 13:55:34;;;;;;;17.90;13.00;;;13.20;99.90;;;11.62;100.00;99930.41;10408640;28;96455;-92
2023/05/14 14:00:37;;;;;;;15.67;11.00;;;13.20;99.90;;;11.58;100.00;99909.69;10406269;28;96470;-94
2023/05/14 14:05:40;;;;;;;10.77;8.73;;;13.20;99.90;;;11.61;100.00;99904.81;10408038;28;96646;-93
2023/05/14 14:10:43;;;;;;;13.50;8.87;;;13.20;99.90;;;11.64;100.00;99916.94;10408955;28;96880;-93
2023/05/14 14:15:48;;;;;;;13.13;9.40;;;13.30;99.90;;;11.65;100.00;99921.25;10374031;28;97969;-93
2023/05/14 14:20:51;;;;;;;16.00;9.13;;;13.30;99.90;;;11.60;100.00;99908.47;10390560;28;98486;-94
2023/05/14 14:25:54;;;;;;;12.90;10.07;;;13.20;99.90;;;11.55;100.00;99910.03;10393526;28;96461;-92
2023/05/14 14:30:58;;;;;;;14.87;10.03;;;13.20;99.90;;;11.55;100.00;99907.38;10388162;28;97637;-93
2023/05/14 14:36:01;;;;;;;14.60;11.20;;;13.10;99.90;;;11.53;100.00;99910.22;10424301;28;97530;-95
2023/05/14 14:41:08;;;;;;;19.90;13.47;;;13.10;99.90;;;11.52;100.00;99896.09;10387514;28;96724;-94
2023/05/14 14:46:12;;;;;;;15.50;10.97;;;13.10;99.90;;;11.55;100.00;99894.06;10406541;28;96828;-96
2023/05/14 14:51:15;;;;;;;16.70;11.23;;;13.10;99.90;;;11.51;100.00;99881.13;10399265;28;96716;-91
2023/05/14 14:56:18;;;;;;;14.13;10.50;;;13.10;99.90;;;11.48;100.00;99878.00;10422647;27;97445;-94
2023/05/14 15:01:21;;;;;;;14.13;9.00;;;13.10;99.90;;;11.44;100.00;99882.03;10383164;28;96792;-94
2023/05/14 15:06:26;;;;;;;12.47;9.27;;;13.10;99.90;;;11.46;100.00;99870.22;10407050;28;96477;-93
2023/05/14 15:11:29;;;;;;;13.73;10.13;;;13.10;99.90;;;11.38;100.00;99851.66;10420368;28;96532;-95
2023/05/14 15:16:32;;;;;;;13.27;10.23;;;13.00;99.90;;;11.44;100.00;99850.91;10401107;28;96586;-95
2023/05/14 15:21:35;;;;;;;12.30;9.10;;;13.00;99.90;;;11.43;100.00;99849.28;10405564;28;96864;-94
2023/05/14 15:26:39;;;;;;;18.67;8.83;;;13.00;99.90;;;11.46;100.00;99848.09;10408813;28;97123;-95
2023/05/14 15:31:44;;;;;;;8.80;6.60;;;13.10;99.90;;;11.41;100.00;99847.81;10415805;28;96352;-96
2023/05/14 15:36:49;;;;;;;27.90;14.83;;;13.00;99.90;;;11.25;100.00;99843.47;10435198;28;96440;-95
2023/05/14 15:41:52;;;;;;;16.43;7.03;;;12.90;99.90;;;11.21;100.00;99845.66;10412129;28;96491;-94
2023/05/14 15:46:55;;;;;;;10.27;5.90;;;12.90;99.90;;;11.17;100.00;99833.75;10423802;27;96497;-95
2023/05/14 15:51:59;;;;;;;7.07;5.50;;;12.80;99.90;;;11.20;100.00;99840.53;10421091;28;97483;-93
2023/05/14 15:57:02;;;;;;;7.07;5.83;;;12.80;99.90;;;11.19;100.00;99839.69;10391160;28;96723;-93
2023/05/14 16:02:07;;;;;;;9.20;6.40;;;12.80;99.90;;;11.17;100.00;99816.97;10398635;28;96584;-92
2023/05/14 16:07:11;;;;;;;10.40;6.53;;;12.80;99.90;;;11.09;100.00;99803.72;10397650;28;96526;-91
2023/05/14 16:12:14;;;;;;;8.60;6.10;;;12.70;99.90;;;11.06;100.00;99793.47;10420699;28;96546;-92
2023/05/14 16:17:18;;;;;;;10.20;5.57;;;12.70;99.90;;;11.04;100.00;99791.00;10419330;28;96498;-91
2023/05/14 16:22:21;;;;;;;14.87;10.10;;;12.60;99.90;;;10.99;100.00;99788.03;10416763;27;96972;-92
2023/05/14 16:27:24;;;;;;;13.57;10.20;;;12.60;99.90;;;11.00;100.00;99789.69;10389616;28;97533;-92
2023/05/14 16:32:27;;;;;;;7.87;4.80;;;12.60;99.90;;;10.99;100.00;99793.34;10390908;28;97148;-92
2023/05/14 16:37:30;;;;;;;16.03;7.63;;;12.60;99.90;;;10.96;100.00;99793.69;10403761;27;96690;-91
2023/05/14 16:42:33;;;;;;;9.07;6.77;;;12.60;99.90;;;11.02;100.00;99800.97;10422715;27;97625;-90
2023/05/14 16:47:36;;;;;;;9.67;6.90;;;12.60;99.90;;;11.03;100.00;99785.84;10411758;28;98547;-91
2023/05/14 16:52:40;;;;;;;14.00;6.73;;;12.60;99.90;;;11.05;100.00;99778.53;10399378;28;97650;-92
2023/05/14 16:57:43;;;;;;;8.43;7.20;;;12.70;99.90;;;11.05;100.00;99759.91;10411369;28;97096;-91
2023/05/14 17:02:48;;;;;;;7.40;5.23;;;12.70;99.90;;;11.03;100.00;99752.09;10399959;28;96683;-91
2023/05/14 17:07:51;;;;;;;9.13;6.27;;;12.60;99.90;;;11.05;100.00;99749.28;10407938;28;96701;-92
2023/05/14 17:12:54;;;;;;;16.70;8.63;;;12.70;99.90;;;11.05;100.00;99746.63;10413668;28;98249;-89
2023/05/14 17:17:57;;;;;;;10.43;7.30;;;12.70;99.90;;;11.10;100.00;99736.25;10383432;28;96588;-89
2023/05/14 17:23:00;;;;;;;10.63;7.07;;;12.70;99.90;;;11.10;100.00;99736.25;10387489;28;96549;-89
2023/05/14 17:28:03;;;;;;;6.97;5.40;;;12.70;99.90;;;11.07;100.00;99733.94;10400369;27;96603;-89
2023/05/14 17:33:06;;;;;;;8.43;4.77;;;12.70;99.90;;;11.07;100.00;99731.28;10385385;28;96587;-89
2023/05/14 17:38:10;;;;;;;11.73;7.27;;;12.60;99.90;;;11.09;100.00;99721.28;10390390;28;96988;-89
2023/05/14 17:43:13;;;;;;;37.70;16.13;;;12.70;99.90;;;11.10;100.00;99722.97;10398028;28;97967;-89
2023/05/14 17:48:16;;;;;;;35.70;17.57;;;12.70;99.90;;;11.06;100.00;99722.50;10399136;28;96586;-89
2023/05/14 17:53:19;;;;;;;17.83;12.73;;;12.70;99.90;;;11.04;100.00;99713.06;10385740;27;97515;-89
2023/05/14 17:58:23;;;;;;;10.33;7.30;;;12.70;99.90;;;11.03;100.00;99706.88;10385701;28;96823;-89
2023/05/14 18:03:26;;;;;;;10.33;7.70;;;12.60;99.90;;;11.00;100.00;99688.66;10401007;28;96533;-90
2023/05/14 18:08:29;;;;;;;10.87;7.70;;;12.60;99.90;;;11.02;100.00;99689.28;10416956;27;96864;-90
2023/05/14 18:13:32;;;;;;;19.77;12.47;;;12.60;99.90;;;10.99;100.00;99679.88;10384765;28;97335;-93
2023/05/14 18:18:35;;;;;;;23.17;13.40;;;12.60;99.90;;;11.01;100.00;99674.34;10404594;28;96730;-90
2023/05/14 18:23:38;;;;;;;34.53;18.77;;;12.60;99.90;;;11.04;100.00;99673.19;10400299;28;96978;-90
2023/05/14 18:28:41;;;;;;;30.80;18.90;;;12.60;99.90;;;11.08;100.00;99685.06;10398543;28;96741;-91
2023/05/14 18:33:44;;;;;;;19.13;12.83;;;12.70;99.90;;;11.12;100.00;99689.84;10383802;28;97159;-90
2023/05/14 18:38:48;;;;;;;13.87;10.20;;;12.70;99.90;;;11.14;100.00;99693.13;10402646;27;96784;-91
2023/05/14 18:43:51;;;;;;;14.67;10.60;;;12.70;99.90;;;11.17;100.00;99694.63;10401660;27;97889;-91
2023/05/14 18:48:55;;;;;;;23.27;14.73;;;12.80;99.90;;;11.19;100.00;99696.09;10386256;28;96751;-92
2023/05/14 18:53:58;;;;;;;19.73;12.60;;;12.80;99.90;;;11.24;100.00;99695.53;10384115;28;96801;-91
2023/05/14 18:59:01;;;;;;;23.70;11.37;;;12.80;99.90;;;11.25;100.00;99691.84;10377998;28;96620;-91
2023/05/14 19:04:05;;;;;;;14.90;9.20;;;12.90;99.90;;;11.29;100.00;99702.97;10379385;28;96470;-91
2023/05/14 19:09:09;;;;;;;27.17;9.47;;;12.90;99.90;;;11.31;100.00;99699.09;10390478;28;96711;-91
2023/05/14 19:14:12;;;;;;;12.13;7.47;;;12.90;99.90;;;11.31;100.00;99677.00;10404862;28;96912;-91
2023/05/14 19:19:15;;;;;;;14.67;7.67;;;12.90;99.90;;;11.30;100.00;99662.88;10388028;28;96485;-90
2023/05/14 19:24:19;;;;;;;11.27;7.30;;;12.90;99.90;;;11.31;100.00;99674.34;10403593;28;96529;-91
2023/05/14 19:29:22;;;;;;;15.87;8.83;;;12.90;99.90;;;11.27;100.00;99663.22;10394681;28;96916;-90
2023/05/14 19:34:25;;;;;;;14.73;8.70;;;12.90;99.90;;;11.29;100.00;99671.06;10389571;28;96610;-91
2023/05/14 19:39:28;;;;;;;12.90;8.00;;;12.90;99.90;;;11.28;100.00;99659.59;10404426;28;96636;-91
2023/05/14 19:44:32;;;;;;;23.63;11.73;;;12.90;99.90;;;11.28;100.00;99656.94;10402418;28;97307;-91
2023/05/14 19:49:35;;;;;;;19.50;9.53;;;12.90;99.90;;;11.29;100.00;99655.91;10390759;28;96816;-92
2023/05/14 19:54:38;;;;;;;24.77;11.50;;;12.90;99.90;;;11.27;100.00;99636.63;10421504;27;97054;-95
2023/05/14 19:59:41;;;;;;;17.23;10.07;;;12.90;99.90;;;11.22;100.00;99642.53;10393610;28;96610;-93
2023/05/14 20:04:44;;;;;;;13.83;8.53;;;12.80;99.90;;;11.15;100.00;99632.81;10393461;28;97012;-96
2023/05/14 20:09:48;;;;;;;17.27;9.67;;;12.80;99.90;;;11.15;100.00;99619.50;10414320;28;96443;-96
2023/05/14 20:14:51;;;;;;;14.03;9.10;;;12.70;99.90;;;11.17;100.00;99613.00;10429952;28;96389;-95
2023/05/14 20:19:55;;;;;;;17.57;10.67;;;12.80;99.90;;;11.20;100.00;99612.63;10411210;28;96693;-96
2023/05/14 20:24:58;;;;;;;19.17;9.70;;;12.80;99.90;;;11.23;100.00;99614.09;10394670;27;97034;-95
2023/05/14 20:30:01;;;;;;;16.67;10.23;;;12.80;99.90;;;11.23;100.00;99608.78;10412569;27;96826;-95
2023/05/14 20:35:05;;;;;;;12.67;7.83;;;12.90;99.90;;;11.28;100.00;99595.75;10401568;28;96745;-95
2023/05/14 20:40:12;;;;;;;16.80;8.27;;;12.90;99.90;;;11.29;100.00;99602.72;10414588;28;96902;-96
2023/05/14 20:45:16;;;;;;;37.80;13.57;;;12.90;99.90;;;11.31;100.00;99595.38;10410639;28;97844;-96